createdAt,value
2023-04-23T00:01:33.025Z,11.90
2023-04-23T00:04:06.978Z,10.10
2023-04-23T00:06:40.251Z,12.70
2023-04-23T00:09:16.885Z,11.60
2023-04-23T00:11:51.485Z,10.70
2023-04-23T00:14:25.455Z,13.80
2023-04-23T00:19:29.737Z,11.70
2023-04-23T00:22:07.237Z,11.40
2023-04-23T00:24:40.030Z,13.00
2023-04-23T00:27:13.096Z,10.50
2023-04-23T00:29:46.931Z,12.10
2023-04-23T00:32:19.585Z,11.40
2023-04-23T00:37:26.742Z,9.60
2023-04-23T00:39:59.228Z,13.80
2023-04-23T00:42:32.295Z,12.10
2023-04-23T00:45:06.521Z,11.50
2023-04-23T00:47:39.251Z,11.70
2023-04-23T00:50:13.570Z,9.70
2023-04-23T00:52:46.328Z,10.30
2023-04-23T00:55:21.592Z,12.00
2023-04-23T00:57:54.657Z,10.90
2023-04-23T01:00:27.503Z,11.10
2023-04-23T01:03:02.428Z,12.20
2023-04-23T01:05:35.329Z,10.60
2023-04-23T01:08:08.400Z,13.40
2023-04-23T01:10:41.531Z,12.50
2023-04-23T01:13:16.024Z,12.20
2023-04-23T01:15:49.355Z,9.80
2023-04-23T01:18:25.112Z,12.10
2023-04-23T01:20:58.276Z,10.60
2023-04-23T01:23:31.728Z,9.70
2023-04-23T01:26:04.455Z,11.50
2023-04-23T01:28:37.613Z,14.60
2023-04-23T01:31:11.134Z,10.90
2023-04-23T01:33:48.694Z,11.40
2023-04-23T01:36:21.509Z,11.10
2023-04-23T01:38:56.284Z,11.40
2023-04-23T01:41:28.751Z,9.30
2023-04-23T01:44:02.277Z,12.70
2023-04-23T01:46:37.139Z,9.90
2023-04-23T01:49:10.087Z,10.60
2023-04-23T01:51:43.946Z,16.20
2023-04-23T01:54:16.635Z,12.10
2023-04-23T01:56:49.189Z,14.50
2023-04-23T01:59:24.306Z,14.90
2023-04-23T02:01:57.054Z,12.90
2023-04-23T02:04:30.107Z,14.90
2023-04-23T02:07:03.290Z,13.90
2023-04-23T02:09:36.054Z,13.90
2023-04-23T02:12:09.134Z,15.60
2023-04-23T02:14:42.186Z,16.40
2023-04-23T02:17:15.948Z,12.00
2023-04-23T02:19:49.027Z,15.30
2023-04-23T02:22:22.732Z,13.40
2023-04-23T02:24:56.332Z,12.50
2023-04-23T02:30:00.452Z,13.10
2023-04-23T02:32:33.597Z,14.80
2023-04-23T02:35:07.741Z,15.10
2023-04-23T02:37:40.799Z,14.90
2023-04-23T02:40:14.712Z,14.00
2023-04-23T02:42:47.282Z,15.20
2023-04-23T02:45:20.383Z,14.60
2023-04-23T02:47:56.305Z,14.30
2023-04-23T02:50:29.157Z,13.00
2023-04-23T02:53:02.181Z,14.80
2023-04-23T02:55:35.108Z,17.70
2023-04-23T02:58:07.869Z,13.60
2023-04-23T03:00:41.510Z,13.20
2023-04-23T03:03:14.823Z,12.20
2023-04-23T03:05:47.800Z,15.30
2023-04-23T03:08:20.268Z,16.10
2023-04-23T03:10:55.554Z,15.30
2023-04-23T03:13:28.530Z,15.40
2023-04-23T03:16:01.273Z,13.60
2023-04-23T03:18:33.934Z,16.50
2023-04-23T03:21:08.512Z,14.80
2023-04-23T03:23:41.483Z,17.10
2023-04-23T03:26:14.376Z,13.40
2023-04-23T03:28:47.577Z,13.80
2023-04-23T03:31:20.392Z,11.70
2023-04-23T03:33:53.582Z,15.30
2023-04-23T03:36:30.552Z,15.00
2023-04-23T03:39:03.632Z,14.30
2023-04-23T03:41:46.777Z,14.30
2023-04-23T03:44:20.241Z,18.20
2023-04-23T03:46:53.992Z,13.60
2023-04-23T03:51:58.106Z,12.50
2023-04-23T03:54:30.909Z,13.90
2023-04-23T03:57:19.101Z,17.90
2023-04-23T04:00:21.350Z,13.60
2023-04-23T04:02:54.112Z,12.50
2023-04-23T04:05:29.875Z,13.70
2023-04-23T04:08:05.107Z,13.90
2023-04-23T04:10:37.661Z,13.30
2023-04-23T04:13:10.211Z,15.70
2023-04-23T04:15:43.842Z,12.00
2023-04-23T04:20:47.371Z,11.40
2023-04-23T04:23:20.052Z,17.80
2023-04-23T04:25:56.903Z,12.70
2023-04-23T04:28:29.753Z,14.40
2023-04-23T04:31:03.439Z,15.00
2023-04-23T04:33:36.735Z,15.30
2023-04-23T04:36:10.440Z,12.50
2023-04-23T04:38:44.248Z,12.70
2023-04-23T04:43:48.693Z,11.90
2023-04-23T04:48:53.215Z,10.70
2023-04-23T04:51:25.878Z,12.80
2023-04-23T04:53:58.963Z,15.20
2023-04-23T04:56:31.728Z,14.70
2023-04-23T04:59:06.039Z,13.10
2023-04-23T05:01:38.756Z,12.80
2023-04-23T05:04:11.600Z,11.80
2023-04-23T05:06:44.847Z,14.10
2023-04-23T05:09:18.798Z,14.30
2023-04-23T05:11:52.028Z,11.40
2023-04-23T05:14:26.526Z,13.10
2023-04-23T05:16:59.887Z,13.70
2023-04-23T05:19:34.009Z,14.30
2023-04-23T05:22:06.568Z,11.80
2023-04-23T05:24:40.094Z,11.80
2023-04-23T05:27:13.139Z,12.00
2023-04-23T05:29:46.018Z,14.00
2023-04-23T05:32:18.602Z,13.10
2023-04-23T05:34:51.649Z,12.20
2023-04-23T05:37:25.015Z,13.60
2023-04-23T05:39:58.531Z,14.60
2023-04-23T05:42:32.689Z,14.90
2023-04-23T05:45:08.066Z,11.50
2023-04-23T05:47:41.631Z,13.10
2023-04-23T05:50:15.166Z,13.50
2023-04-23T05:52:47.499Z,13.10
2023-04-23T05:55:21.316Z,13.40
2023-04-23T05:57:53.949Z,14.60
2023-04-23T06:00:27.706Z,15.00
2023-04-23T06:03:00.614Z,13.80
2023-04-23T06:05:33.634Z,13.60
2023-04-23T06:08:06.267Z,14.70
2023-04-23T06:10:40.686Z,14.90
2023-04-23T06:13:15.614Z,14.90
2023-04-23T06:15:50.307Z,16.90
2023-04-23T06:18:22.819Z,14.70
2023-04-23T06:20:57.586Z,13.90
2023-04-23T06:23:30.345Z,15.10
2023-04-23T06:26:04.796Z,16.40
2023-04-23T06:28:37.508Z,15.40
2023-04-23T06:31:40.123Z,14.60
2023-04-23T06:34:12.764Z,15.90
2023-04-23T06:36:45.654Z,17.30
2023-04-23T06:39:18.131Z,17.10
2023-04-23T06:41:51.368Z,15.90
2023-04-23T06:44:30.668Z,16.80
2023-04-23T06:47:03.702Z,14.20
2023-04-23T06:49:36.211Z,15.00
2023-04-23T06:52:09.286Z,16.40
2023-04-23T06:54:42.226Z,16.90
2023-04-23T06:57:15.348Z,18.90
2023-04-23T06:59:48.188Z,16.00
2023-04-23T07:02:22.123Z,12.30
2023-04-23T07:04:55.462Z,12.50
2023-04-23T07:07:28.227Z,17.90
2023-04-23T07:10:00.970Z,14.80
2023-04-23T07:12:33.748Z,14.40
2023-04-23T07:15:07.567Z,16.10
2023-04-23T07:17:40.188Z,13.50
2023-04-23T07:20:13.571Z,14.60
2023-04-23T07:22:48.191Z,15.10
2023-04-23T07:25:22.109Z,14.90
2023-04-23T07:27:56.069Z,15.40
2023-04-23T07:30:30.094Z,12.30
2023-04-23T07:33:03.081Z,13.90
2023-04-23T07:35:35.536Z,13.00
2023-04-23T07:38:08.269Z,14.00
2023-04-23T07:40:41.735Z,13.60
2023-04-23T07:43:15.273Z,12.20
2023-04-23T07:48:19.156Z,13.60
2023-04-23T07:53:24.117Z,13.20
2023-04-23T07:55:57.072Z,12.60
2023-04-23T07:58:29.923Z,10.70
2023-04-23T08:01:03.488Z,12.30
2023-04-23T08:03:36.506Z,11.40
2023-04-23T08:06:11.601Z,11.50
2023-04-23T08:08:44.551Z,10.80
2023-04-23T08:11:17.162Z,10.50
2023-04-23T08:13:51.647Z,12.80
2023-04-23T08:16:24.312Z,12.40
2023-04-23T08:19:05.636Z,11.70
2023-04-23T08:21:40.525Z,13.10
2023-04-23T08:26:47.044Z,11.40
2023-04-23T08:29:20.334Z,12.00
2023-04-23T08:31:52.803Z,13.30
2023-04-23T08:34:26.065Z,10.10
2023-04-23T08:37:27.284Z,12.70
2023-04-23T08:40:05.564Z,9.40
2023-04-23T08:42:44.389Z,12.20
2023-04-23T08:45:17.574Z,9.20
2023-04-23T08:50:21.981Z,10.90
2023-04-23T08:52:58.085Z,8.60
2023-04-23T08:55:31.845Z,9.20
2023-04-23T08:58:07.689Z,8.70
2023-04-23T09:00:40.938Z,10.40
2023-04-23T09:03:15.205Z,10.70
2023-04-23T09:05:48.492Z,10.30
2023-04-23T09:10:53.548Z,11.80
2023-04-23T09:13:26.332Z,11.90
2023-04-23T09:15:59.589Z,13.30
2023-04-23T09:18:32.064Z,12.00
2023-04-23T09:21:05.602Z,8.30
2023-04-23T09:23:41.700Z,10.00
2023-04-23T09:26:24.034Z,8.20
2023-04-23T09:28:56.594Z,10.20
2023-04-23T09:31:29.793Z,7.30
2023-04-23T09:34:03.223Z,7.30
2023-04-23T09:36:37.425Z,8.40
2023-04-23T09:39:20.048Z,8.80
2023-04-23T09:41:55.338Z,9.80
2023-04-23T09:44:35.740Z,9.40
2023-04-23T09:47:16.160Z,7.40
2023-04-23T09:49:52.513Z,5.80
2023-04-23T09:52:25.654Z,6.20
2023-04-23T09:55:00.585Z,6.90
2023-04-23T09:57:33.931Z,5.30
2023-04-23T10:00:19.474Z,6.90
2023-04-23T10:02:54.303Z,5.20
2023-04-23T10:05:36.895Z,5.10
2023-04-23T10:08:18.559Z,8.10
2023-04-23T10:11:05.966Z,5.90
2023-04-23T10:16:23.049Z,5.90
2023-04-23T10:19:01.873Z,5.70
2023-04-23T10:21:50.142Z,6.00
2023-04-23T10:24:28.936Z,4.90
2023-04-23T10:27:04.605Z,6.60
2023-04-23T10:29:38.119Z,5.90
2023-04-23T10:32:14.638Z,6.90
2023-04-23T10:34:48.389Z,5.60
2023-04-23T10:37:21.769Z,5.90
2023-04-23T10:39:58.364Z,6.60
2023-04-23T10:42:31.738Z,4.00
2023-04-23T10:45:22.565Z,5.20
2023-04-23T10:47:57.875Z,4.60
2023-04-23T10:50:32.964Z,7.50
2023-04-23T10:53:19.739Z,5.30
2023-04-23T10:55:52.473Z,6.30
2023-04-23T10:58:25.879Z,7.80
2023-04-23T11:00:59.021Z,5.50
2023-04-23T11:03:44.424Z,7.00
2023-04-23T11:06:22.680Z,5.90
2023-04-23T11:08:59.760Z,6.60
2023-04-23T11:11:45.450Z,5.40
2023-04-23T11:14:18.003Z,5.80
2023-04-23T11:16:52.171Z,5.50
2023-04-23T11:19:26.383Z,5.70
2023-04-23T11:22:06.562Z,7.10
2023-04-23T11:24:42.753Z,6.20
2023-04-23T11:27:17.863Z,8.00
2023-04-23T11:29:50.663Z,6.10
2023-04-23T11:32:25.865Z,7.60
2023-04-23T11:35:04.010Z,6.90
2023-04-23T11:37:43.169Z,5.40
2023-04-23T11:40:21.910Z,5.50
2023-04-23T11:42:59.427Z,8.50
2023-04-23T11:45:32.622Z,8.00
2023-04-23T11:48:06.260Z,6.80
2023-04-23T11:50:39.833Z,6.20
2023-04-23T11:53:15.271Z,6.20
2023-04-23T11:55:51.036Z,7.60
2023-04-23T11:58:23.851Z,8.60
2023-04-23T12:01:02.989Z,5.40
2023-04-23T12:03:35.839Z,7.80
2023-04-23T12:06:10.828Z,5.60
2023-04-23T12:08:44.357Z,5.80
2023-04-23T12:11:17.833Z,5.80
2023-04-23T12:13:51.104Z,5.30
2023-04-23T12:16:37.781Z,7.40
2023-04-23T12:19:11.978Z,5.90
2023-04-23T12:21:56.765Z,5.90
2023-04-23T12:24:31.402Z,7.70
2023-04-23T12:27:06.093Z,5.30
2023-04-23T12:29:39.058Z,4.90
2023-04-23T12:32:14.369Z,8.80
2023-04-23T12:34:57.116Z,5.00
2023-04-23T12:37:31.571Z,5.80
2023-04-23T12:40:07.469Z,7.50
2023-04-23T12:42:40.534Z,7.50
2023-04-23T12:45:14.473Z,5.90
2023-04-23T12:47:47.795Z,7.20
2023-04-23T12:50:23.366Z,4.40
2023-04-23T12:52:56.578Z,3.60
2023-04-23T12:55:31.488Z,4.90
2023-04-23T12:58:09.504Z,3.90
2023-04-23T13:00:42.548Z,4.20
2023-04-23T13:05:49.439Z,5.80
2023-04-23T13:08:22.181Z,6.00
2023-04-23T13:10:55.341Z,6.10
2023-04-23T13:13:27.947Z,5.90
2023-04-23T13:18:35.437Z,3.90
2023-04-23T13:21:08.731Z,5.70
2023-04-23T13:23:42.762Z,4.50
2023-04-23T13:26:15.841Z,4.70
2023-04-23T13:28:50.117Z,3.40
2023-04-23T13:31:23.235Z,4.80
2023-04-23T13:36:26.870Z,4.50
2023-04-23T13:41:31.383Z,5.70
2023-04-23T13:44:03.998Z,3.70
2023-04-23T13:46:38.251Z,4.60
2023-04-23T13:49:11.323Z,5.50
2023-04-23T13:51:43.952Z,4.40
2023-04-23T13:54:16.765Z,4.40
2023-04-23T13:56:50.802Z,6.00
2023-04-23T13:59:24.118Z,4.40
2023-04-23T14:01:59.122Z,4.30
2023-04-23T14:04:33.632Z,5.00
2023-04-23T14:07:06.600Z,5.10
2023-04-23T14:09:39.143Z,6.20
2023-04-23T14:12:12.635Z,5.40
2023-04-23T14:14:45.424Z,4.90
2023-04-23T14:19:49.767Z,4.70
2023-04-23T14:24:59.073Z,4.10
2023-04-23T14:27:34.150Z,6.50
2023-04-23T14:30:15.515Z,4.30
2023-04-23T14:32:50.569Z,6.90
2023-04-23T14:35:32.489Z,5.90
2023-04-23T14:38:14.936Z,6.50
2023-04-23T14:40:47.721Z,4.20
2023-04-23T14:43:20.581Z,3.30
2023-04-23T14:45:54.221Z,5.10
2023-04-23T14:48:27.946Z,6.30
2023-04-23T14:51:00.856Z,7.30
2023-04-23T14:56:04.368Z,3.40
2023-04-23T14:58:37.469Z,3.50
2023-04-23T15:01:10.366Z,7.00
2023-04-23T15:06:16.626Z,4.40
2023-04-23T15:08:49.429Z,4.80
2023-04-23T15:11:22.077Z,4.60
2023-04-23T15:14:04.556Z,3.80
2023-04-23T15:19:20.468Z,5.50
2023-04-23T15:21:53.410Z,5.30
2023-04-23T15:26:59.691Z,5.20
2023-04-23T15:29:32.723Z,4.10
2023-04-23T15:32:05.470Z,4.80
2023-04-23T15:34:38.634Z,8.00
2023-04-23T15:39:42.673Z,4.00
2023-04-23T15:42:18.670Z,6.30
2023-04-23T15:44:55.064Z,6.30
2023-04-23T15:47:27.937Z,4.20
2023-04-23T15:52:32.753Z,4.20
2023-04-23T15:55:06.567Z,5.50
2023-04-23T15:57:39.084Z,4.80
2023-04-23T16:00:13.836Z,3.70
2023-04-23T16:02:46.654Z,4.60
2023-04-23T16:05:20.236Z,3.60
2023-04-23T16:07:53.230Z,6.20
2023-04-23T16:12:58.764Z,6.30
2023-04-23T16:15:32.593Z,5.60
2023-04-23T16:18:06.543Z,5.30
2023-04-23T16:20:39.572Z,3.90
2023-04-23T16:23:13.614Z,6.10
2023-04-23T16:25:46.748Z,5.00
2023-04-23T16:30:50.517Z,3.40
2023-04-23T16:33:24.251Z,4.70
2023-04-23T16:35:57.571Z,4.50
2023-04-23T16:38:30.272Z,5.40
2023-04-23T16:41:05.050Z,5.60
2023-04-23T16:43:37.870Z,5.80
2023-04-23T16:46:11.203Z,5.90
2023-04-23T16:48:45.642Z,4.90
2023-04-23T16:51:18.274Z,3.90
2023-04-23T16:53:51.328Z,4.80
2023-04-23T16:56:25.288Z,4.90
2023-04-23T16:58:58.642Z,5.00
2023-04-23T17:01:32.856Z,6.30
2023-04-23T17:04:06.313Z,5.60
2023-04-23T17:06:40.597Z,6.20
2023-04-23T17:09:13.378Z,7.10
2023-04-23T17:11:45.954Z,6.10
2023-04-23T17:14:18.689Z,5.80
2023-04-23T17:16:51.391Z,8.60
2023-04-23T17:19:24.254Z,8.90
2023-04-23T17:21:57.175Z,5.90
2023-04-23T17:24:30.465Z,9.30
2023-04-23T17:27:04.733Z,5.80
2023-04-23T17:29:38.180Z,10.20
2023-04-23T17:32:11.865Z,8.10
2023-04-23T17:34:51.536Z,6.10
2023-04-23T17:37:29.856Z,9.10
2023-04-23T17:40:03.057Z,8.50
2023-04-23T17:42:36.939Z,7.60
2023-04-23T17:45:11.787Z,9.80
2023-04-23T17:47:44.877Z,6.80
2023-04-23T17:50:17.631Z,6.90
2023-04-23T17:52:50.348Z,9.70
2023-04-23T17:55:23.549Z,8.00
2023-04-23T18:00:28.912Z,6.70
2023-04-23T18:03:04.010Z,9.50
2023-04-23T18:05:38.638Z,6.40
2023-04-23T18:08:12.288Z,7.00
2023-04-23T18:10:45.944Z,9.00
2023-04-23T18:13:19.391Z,6.70
2023-04-23T18:15:55.895Z,5.80
2023-04-23T18:18:29.956Z,7.90
2023-04-23T18:21:04.007Z,10.10
2023-04-23T18:23:38.187Z,6.40
2023-04-23T18:26:15.578Z,7.90
2023-04-23T18:28:52.244Z,6.50
2023-04-23T18:31:29.190Z,8.50
2023-04-23T18:34:14.014Z,6.60
2023-04-23T18:36:52.303Z,10.00
2023-04-23T18:39:26.099Z,6.90
2023-04-23T18:42:01.681Z,7.20
2023-04-23T18:44:35.694Z,6.40
2023-04-23T18:47:13.612Z,7.30
2023-04-23T18:49:55.169Z,7.80
2023-04-23T18:52:31.071Z,6.90
2023-04-23T18:55:07.439Z,7.30
2023-04-23T18:57:42.543Z,13.80
2023-04-23T19:00:19.712Z,9.80
2023-04-23T19:02:53.646Z,7.00
2023-04-23T19:07:57.480Z,10.20
2023-04-23T19:10:30.975Z,6.70
2023-04-23T19:13:03.919Z,8.20
2023-04-23T19:15:37.290Z,10.70
2023-04-23T19:20:41.226Z,7.30
2023-04-23T19:23:14.116Z,9.60
2023-04-23T19:25:49.154Z,8.80
2023-04-23T19:28:22.639Z,8.10
2023-04-23T19:30:55.975Z,8.30
2023-04-23T19:33:29.995Z,7.90
2023-04-23T19:36:02.916Z,8.50
2023-04-23T19:38:35.747Z,9.50
2023-04-23T19:41:10.125Z,8.10
2023-04-23T19:43:43.160Z,7.70
2023-04-23T19:46:16.161Z,8.80
2023-04-23T19:48:49.110Z,8.30
2023-04-23T19:51:25.496Z,8.50
2023-04-23T19:53:58.758Z,9.20
2023-04-23T19:56:31.520Z,9.60
2023-04-23T19:59:04.489Z,10.30
2023-04-23T20:01:37.757Z,8.80
2023-04-23T20:04:10.961Z,9.70
2023-04-23T20:09:20.927Z,10.30
2023-04-23T20:11:53.617Z,9.70
2023-04-23T20:14:27.157Z,8.70
2023-04-23T20:16:59.923Z,10.10
2023-04-23T20:19:33.919Z,10.50
2023-04-23T20:22:07.198Z,10.90
2023-04-23T20:24:47.213Z,8.40
2023-04-23T20:27:19.814Z,7.60
2023-04-23T20:29:53.027Z,10.40
2023-04-23T20:32:25.514Z,9.10
2023-04-23T20:34:59.429Z,10.70
2023-04-23T20:37:32.201Z,9.30
2023-04-23T20:40:08.925Z,12.20
2023-04-23T20:42:42.659Z,8.00
2023-04-23T20:45:16.332Z,8.00
2023-04-23T20:47:48.978Z,8.60
2023-04-23T20:50:22.321Z,9.00
2023-04-23T20:52:56.071Z,9.10
2023-04-23T20:55:29.410Z,7.50
2023-04-23T21:00:35.482Z,10.80
2023-04-23T21:03:08.210Z,10.20
2023-04-23T21:05:44.642Z,11.00
2023-04-23T21:08:17.519Z,11.30
2023-04-23T21:10:50.385Z,9.70
2023-04-23T21:13:23.004Z,13.40
2023-04-23T21:15:56.399Z,11.10
2023-04-23T21:21:00.032Z,10.40
2023-04-23T21:23:34.301Z,8.40
2023-04-23T21:26:08.177Z,10.40
2023-04-23T21:28:41.370Z,9.30
2023-04-23T21:31:19.411Z,12.00
2023-04-23T21:33:51.932Z,11.10
2023-04-23T21:36:26.048Z,9.80
2023-04-23T21:39:00.270Z,9.90
2023-04-23T21:41:33.875Z,13.90
2023-04-23T21:46:38.844Z,11.60
2023-04-23T21:49:11.668Z,16.90
2023-04-23T21:51:45.027Z,10.50
2023-04-23T21:54:17.590Z,14.30
2023-04-23T21:56:50.128Z,12.50
2023-04-23T21:59:23.956Z,12.20
2023-04-23T22:01:59.178Z,12.40
2023-04-23T22:04:32.386Z,12.50
2023-04-23T22:07:07.650Z,11.10
2023-04-23T22:09:40.750Z,10.80
2023-04-23T22:12:14.132Z,12.60
2023-04-23T22:14:47.073Z,11.70
2023-04-23T22:17:20.741Z,10.20
2023-04-23T22:19:53.596Z,11.70
2023-04-23T22:22:26.598Z,10.10
2023-04-23T22:24:59.157Z,16.20
2023-04-23T22:27:34.189Z,10.60
2023-04-23T22:30:09.603Z,10.30
2023-04-23T22:32:42.581Z,11.20
2023-04-23T22:35:15.512Z,11.60
2023-04-23T22:37:48.768Z,12.50
2023-04-23T22:40:21.951Z,12.40
2023-04-23T22:42:54.981Z,10.30
2023-04-23T22:45:27.638Z,11.50
2023-04-23T22:48:00.660Z,12.20
2023-04-23T22:50:33.262Z,12.00
2023-04-23T22:53:05.959Z,13.30
2023-04-23T22:55:38.685Z,13.30
2023-04-23T22:58:11.468Z,13.00
2023-04-23T23:00:45.565Z,13.20
2023-04-23T23:03:18.421Z,13.90
2023-04-23T23:05:51.325Z,13.50
2023-04-23T23:08:23.977Z,13.10
2023-04-23T23:10:57.098Z,14.80
2023-04-23T23:13:30.187Z,12.30
2023-04-23T23:18:37.673Z,14.30
2023-04-23T23:21:10.390Z,11.40
2023-04-23T23:23:43.246Z,12.80
2023-04-23T23:26:16.408Z,15.20
2023-04-23T23:28:49.508Z,12.50
2023-04-23T23:31:22.236Z,14.80
2023-04-23T23:33:55.360Z,10.90
2023-04-23T23:36:28.176Z,14.50
2023-04-23T23:39:02.052Z,12.10
2023-04-23T23:44:06.256Z,11.30
2023-04-23T23:46:39.607Z,11.80
2023-04-23T23:49:14.860Z,16.50
2023-04-23T23:51:47.511Z,13.60
2023-04-23T23:54:20.249Z,11.70
2023-04-23T23:56:53.009Z,12.90
2023-04-23T23:59:25.928Z,15.10
